createdAt,value
2022-12-28T00:00:55.083Z,5.10
2022-12-28T00:01:57.425Z,5.85
2022-12-28T00:03:00.603Z,4.78
2022-12-28T00:04:06.442Z,5.32
2022-12-28T00:05:10.785Z,4.72
2022-12-28T00:06:13.650Z,4.80
2022-12-28T00:07:17.321Z,4.78
2022-12-28T00:08:19.431Z,4.38
2022-12-28T00:09:22.996Z,4.55
2022-12-28T00:11:08.998Z,4.80
2022-12-28T00:11:48.472Z,4.65
2022-12-28T00:12:50.563Z,4.15
2022-12-28T00:13:53.997Z,5.47
2022-12-28T00:14:56.289Z,4.32
2022-12-28T00:15:59.564Z,5.05
2022-12-28T00:17:01.882Z,4.05
2022-12-28T00:18:05.566Z,3.70
2022-12-28T00:19:13.124Z,3.85
2022-12-28T00:20:16.414Z,5.00
2022-12-28T00:21:18.738Z,4.80
2022-12-28T00:22:24.128Z,4.53
2022-12-28T00:23:26.823Z,4.85
2022-12-28T00:24:30.004Z,5.65
2022-12-28T00:25:34.557Z,4.20
2022-12-28T00:26:37.746Z,4.00
2022-12-28T00:27:40.372Z,4.85
2022-12-28T00:28:43.740Z,4.40
2022-12-28T00:29:46.035Z,4.50
2022-12-28T00:30:49.928Z,4.75
2022-12-28T00:31:53.156Z,4.50
2022-12-28T00:33:00.514Z,5.85
2022-12-28T00:34:03.515Z,4.53
2022-12-28T00:35:09.088Z,5.38
2022-12-28T00:36:13.420Z,4.55
2022-12-28T00:37:17.791Z,4.70
2022-12-28T00:38:20.049Z,4.30
2022-12-28T00:39:23.678Z,5.07
2022-12-28T00:40:26.022Z,4.70
2022-12-28T00:41:29.191Z,4.47
2022-12-28T00:42:31.358Z,3.90
2022-12-28T00:43:34.838Z,4.40
2022-12-28T00:44:38.140Z,3.85
2022-12-28T00:45:40.538Z,4.05
2022-12-28T00:46:43.787Z,3.63
2022-12-28T00:47:46.990Z,4.28
2022-12-28T00:48:50.495Z,3.60
2022-12-28T00:49:52.785Z,4.90
2022-12-28T00:51:04.152Z,5.53
2022-12-28T00:52:06.490Z,3.60
2022-12-28T00:53:10.412Z,3.83
2022-12-28T00:54:12.566Z,3.90
2022-12-28T00:55:15.920Z,3.72
2022-12-28T00:56:20.534Z,4.75
2022-12-28T00:57:24.853Z,3.55
2022-12-28T00:58:27.028Z,3.58
2022-12-28T00:59:30.738Z,3.83
2022-12-28T01:00:36.555Z,3.90
2022-12-28T01:01:40.961Z,3.50
2022-12-28T01:02:43.125Z,3.05
2022-12-28T01:03:46.993Z,3.70
2022-12-28T01:04:49.305Z,3.50
2022-12-28T01:05:52.447Z,3.10
2022-12-28T01:06:57.062Z,3.80
2022-12-28T01:07:59.143Z,3.80
2022-12-28T01:09:02.443Z,3.13
2022-12-28T01:10:05.360Z,4.90
2022-12-28T01:11:09.533Z,3.80
2022-12-28T01:12:11.715Z,3.80
2022-12-28T01:13:15.663Z,3.78
2022-12-28T01:14:17.846Z,3.70
2022-12-28T01:15:23.563Z,3.72
2022-12-28T01:16:28.074Z,2.88
2022-12-28T01:17:31.675Z,3.15
2022-12-28T01:18:34.281Z,2.67
2022-12-28T01:19:37.702Z,3.40
2022-12-28T01:20:40.617Z,3.50
2022-12-28T01:21:45.422Z,3.20
2022-12-28T01:22:49.085Z,3.30
2022-12-28T01:23:55.341Z,2.78
2022-12-28T01:24:57.471Z,2.95
2022-12-28T01:26:03.148Z,3.25
2022-12-28T01:27:05.876Z,3.40
2022-12-28T01:28:09.274Z,3.83
2022-12-28T01:29:11.806Z,3.45
2022-12-28T01:30:16.258Z,2.90
2022-12-28T01:31:20.451Z,3.70
2022-12-28T01:32:24.010Z,3.40
2022-12-28T01:33:26.147Z,2.83
2022-12-28T01:34:29.229Z,3.10
2022-12-28T01:35:31.343Z,3.22
2022-12-28T01:36:36.005Z,3.40
2022-12-28T01:37:40.977Z,2.97
2022-12-28T01:38:47.675Z,3.00
2022-12-28T01:39:49.871Z,2.40
2022-12-28T01:40:53.109Z,2.30
2022-12-28T01:41:55.333Z,2.55
2022-12-28T01:42:58.520Z,3.08
2022-12-28T01:44:50.560Z,3.15
2022-12-28T01:45:53.452Z,2.30
2022-12-28T01:47:01.992Z,2.90
2022-12-28T01:48:05.338Z,2.20
2022-12-28T01:49:15.633Z,1.92
2022-12-28T01:50:24.905Z,2.20
2022-12-28T01:51:31.308Z,2.47
2022-12-28T01:52:40.741Z,2.80
2022-12-28T01:53:43.203Z,3.03
2022-12-28T01:54:52.698Z,2.33
2022-12-28T01:55:55.447Z,2.20
2022-12-28T01:56:59.539Z,2.15
2022-12-28T01:58:06.893Z,2.20
2022-12-28T01:59:09.654Z,3.28
2022-12-28T02:00:15.520Z,2.80
2022-12-28T02:01:20.745Z,1.90
2022-12-28T02:02:25.435Z,2.17
2022-12-28T02:03:35.466Z,2.15
2022-12-28T02:04:38.033Z,2.70
2022-12-28T02:05:43.636Z,2.50
2022-12-28T02:06:46.442Z,2.15
2022-12-28T02:07:55.002Z,2.67
2022-12-28T02:09:01.906Z,2.45
2022-12-28T02:10:44.612Z,2.70
2022-12-28T02:11:33.647Z,3.00
2022-12-28T02:12:35.951Z,3.33
2022-12-28T02:13:45.659Z,2.50
2022-12-28T02:14:48.023Z,2.10
2022-12-28T02:15:51.884Z,2.38
2022-12-28T02:16:55.213Z,2.70
2022-12-28T02:17:59.331Z,2.80
2022-12-28T02:19:01.552Z,2.72
2022-12-28T02:20:06.585Z,2.30
2022-12-28T02:21:36.233Z,2.22
2022-12-28T02:23:13.712Z,2.20
2022-12-28T02:24:47.382Z,2.17
2022-12-28T02:26:38.198Z,2.80
2022-12-28T02:27:54.869Z,2.40
2022-12-28T02:29:25.679Z,2.13
2022-12-28T02:30:29.740Z,2.30
2022-12-28T02:31:38.830Z,2.30
2022-12-28T02:33:01.212Z,2.30
2022-12-28T02:34:11.379Z,1.98
2022-12-28T02:35:20.790Z,1.73
2022-12-28T02:36:29.220Z,1.90
2022-12-28T02:37:37.931Z,1.70
2022-12-28T02:38:44.620Z,1.55
2022-12-28T02:39:53.510Z,2.10
2022-12-28T02:40:59.964Z,2.15
2022-12-28T02:42:05.534Z,1.90
2022-12-28T02:43:08.044Z,1.70
2022-12-28T02:44:33.067Z,1.90
2022-12-28T02:45:56.658Z,1.63
2022-12-28T02:47:18.572Z,1.65
2022-12-28T02:48:39.308Z,1.60
2022-12-28T02:50:00.255Z,1.77
2022-12-28T02:51:23.278Z,2.05
2022-12-28T02:52:37.622Z,2.15
2022-12-28T02:54:01.421Z,1.90
2022-12-28T02:55:38.513Z,1.95
2022-12-28T02:56:52.663Z,2.35
2022-12-28T02:58:15.586Z,1.67
2022-12-28T02:59:40.453Z,1.90
2022-12-28T03:00:58.357Z,1.60
2022-12-28T03:02:21.928Z,1.80
2022-12-28T03:03:35.170Z,2.30
2022-12-28T03:04:50.380Z,1.80
2022-12-28T03:06:25.547Z,2.05
2022-12-28T03:07:56.470Z,2.05
2022-12-28T03:09:09.846Z,2.40
2022-12-28T03:10:19.510Z,2.70
2022-12-28T03:11:32.670Z,2.13
2022-12-28T03:12:44.699Z,2.20
2022-12-28T03:13:56.372Z,1.92
2022-12-28T03:15:07.859Z,1.50
2022-12-28T03:16:14.879Z,2.20
2022-12-28T03:17:39.174Z,1.70
2022-12-28T03:19:01.737Z,2.22
2022-12-28T03:20:26.315Z,1.95
2022-12-28T03:21:50.064Z,1.80
2022-12-28T03:23:13.936Z,2.13
2022-12-28T03:24:37.759Z,1.95
2022-12-28T03:26:03.376Z,1.63
2022-12-28T03:27:33.858Z,1.80
2022-12-28T03:28:58.713Z,1.60
2022-12-28T03:30:25.534Z,1.70
2022-12-28T03:31:30.495Z,1.48
2022-12-28T03:32:38.266Z,1.60
2022-12-28T03:33:44.362Z,1.55
2022-12-28T03:34:46.603Z,1.60
2022-12-28T03:35:55.493Z,1.80
2022-12-28T03:37:02.648Z,1.80
2022-12-28T03:38:06.314Z,1.58
2022-12-28T03:39:15.141Z,1.55
2022-12-28T03:40:28.494Z,1.67
2022-12-28T03:41:35.213Z,1.30
2022-12-28T03:43:13.947Z,1.40
2022-12-28T03:44:22.316Z,1.50
2022-12-28T03:45:45.241Z,1.60
2022-12-28T03:46:55.915Z,1.25
2022-12-28T03:48:01.239Z,1.38
2022-12-28T03:49:05.482Z,1.23
2022-12-28T03:50:09.545Z,1.30
2022-12-28T03:51:15.439Z,1.20
2022-12-28T03:52:18.173Z,1.17
2022-12-28T03:53:26.871Z,1.30
2022-12-28T03:54:31.354Z,1.27
2022-12-28T03:55:35.825Z,1.08
2022-12-28T03:56:47.759Z,1.48
2022-12-28T03:57:50.317Z,1.17
2022-12-28T03:58:58.938Z,1.00
2022-12-28T04:00:10.932Z,1.17
2022-12-28T04:01:20.646Z,1.20
2022-12-28T04:02:23.501Z,1.25
2022-12-28T04:03:26.849Z,1.23
2022-12-28T04:04:28.948Z,1.35
2022-12-28T04:05:32.111Z,1.45
2022-12-28T04:06:34.579Z,1.20
2022-12-28T04:07:38.402Z,1.38
2022-12-28T04:08:40.557Z,1.10
2022-12-28T04:09:43.778Z,1.20
2022-12-28T04:10:46.745Z,1.20
2022-12-28T04:11:49.937Z,1.30
2022-12-28T04:12:59.616Z,1.00
2022-12-28T04:14:13.461Z,1.13
2022-12-28T04:15:18.587Z,1.00
2022-12-28T04:16:23.410Z,1.08
2022-12-28T04:17:26.416Z,1.27
2022-12-28T04:18:29.747Z,1.00
2022-12-28T04:19:31.810Z,1.45
2022-12-28T04:20:35.016Z,1.38
2022-12-28T04:21:37.200Z,1.23
2022-12-28T04:22:40.891Z,1.30
2022-12-28T04:23:44.015Z,1.30
2022-12-28T04:24:52.900Z,1.33
2022-12-28T04:25:59.302Z,1.27
2022-12-28T04:27:02.647Z,1.15
2022-12-28T04:28:05.050Z,1.40
2022-12-28T04:29:29.019Z,1.23
2022-12-28T04:30:45.223Z,1.20
2022-12-28T04:31:50.047Z,1.10
2022-12-28T04:32:55.798Z,1.40
2022-12-28T04:33:59.640Z,0.95
2022-12-28T04:35:04.518Z,1.35
2022-12-28T04:36:17.727Z,1.35
2022-12-28T04:37:26.422Z,1.60
2022-12-28T04:38:29.870Z,1.25
2022-12-28T04:39:55.741Z,1.40
2022-12-28T04:40:55.757Z,1.27
2022-12-28T04:41:59.091Z,1.45
2022-12-28T04:43:01.198Z,1.05
2022-12-28T04:44:04.386Z,1.38
2022-12-28T04:45:07.508Z,1.73
2022-12-28T04:46:13.588Z,1.23
2022-12-28T04:47:17.119Z,1.20
2022-12-28T04:48:20.215Z,1.20
2022-12-28T04:49:22.674Z,1.10
2022-12-28T04:50:26.471Z,1.02
2022-12-28T04:51:29.901Z,1.05
2022-12-28T04:52:35.111Z,1.45
2022-12-28T04:53:38.152Z,1.10
2022-12-28T04:54:41.576Z,1.30
2022-12-28T04:55:44.045Z,1.10
2022-12-28T04:56:47.577Z,1.02
2022-12-28T04:57:49.762Z,1.67
2022-12-28T04:58:55.874Z,1.20
2022-12-28T04:59:58.024Z,1.00
2022-12-28T05:01:04.599Z,1.13
2022-12-28T05:02:08.480Z,1.33
2022-12-28T05:03:12.365Z,1.27
2022-12-28T05:04:16.041Z,1.00
2022-12-28T05:05:18.184Z,1.05
2022-12-28T05:06:22.802Z,1.17
2022-12-28T05:07:25.073Z,1.30
2022-12-28T05:08:28.254Z,1.15
2022-12-28T05:09:30.392Z,1.00
2022-12-28T05:10:33.778Z,1.20
2022-12-28T05:11:37.021Z,1.17
2022-12-28T05:12:39.241Z,1.10
2022-12-28T05:13:42.604Z,1.20
2022-12-28T05:14:44.830Z,1.30
2022-12-28T05:15:48.303Z,1.20
2022-12-28T05:16:51.212Z,1.20
2022-12-28T05:17:56.098Z,1.30
2022-12-28T05:18:59.695Z,1.48
2022-12-28T05:20:02.977Z,1.92
2022-12-28T05:21:07.923Z,1.75
2022-12-28T05:22:13.062Z,1.63
2022-12-28T05:23:15.428Z,1.65
2022-12-28T05:24:20.630Z,1.33
2022-12-28T05:25:22.865Z,1.30
2022-12-28T05:26:28.662Z,1.40
2022-12-28T05:27:30.703Z,1.30
2022-12-28T05:28:34.535Z,1.10
2022-12-28T05:29:36.622Z,1.10
2022-12-28T05:30:39.957Z,1.40
2022-12-28T05:31:42.122Z,1.40
2022-12-28T05:32:45.382Z,1.30
2022-12-28T05:33:48.120Z,1.65
2022-12-28T05:34:53.018Z,1.50
2022-12-28T05:35:55.187Z,1.10
2022-12-28T05:36:58.516Z,1.50
2022-12-28T05:38:00.596Z,0.93
2022-12-28T05:39:03.693Z,1.45
2022-12-28T05:40:08.197Z,1.58
2022-12-28T05:41:12.805Z,1.48
2022-12-28T05:42:15.929Z,1.50
2022-12-28T05:43:18.062Z,1.70
2022-12-28T05:44:21.318Z,1.45
2022-12-28T05:45:23.463Z,1.00
2022-12-28T05:46:29.165Z,1.60
2022-12-28T05:47:31.436Z,1.30
2022-12-28T05:48:35.590Z,1.05
2022-12-28T05:49:38.684Z,1.13
2022-12-28T05:50:42.243Z,1.10
2022-12-28T05:51:45.848Z,1.20
2022-12-28T05:52:47.924Z,1.40
2022-12-28T05:53:51.557Z,1.85
2022-12-28T05:54:53.864Z,1.10
2022-12-28T05:56:03.104Z,1.20
2022-12-28T05:57:06.537Z,0.90
2022-12-28T05:58:09.550Z,1.13
2022-12-28T05:59:14.532Z,1.20
2022-12-28T06:00:17.521Z,1.30
2022-12-28T06:01:22.713Z,1.50
2022-12-28T06:02:27.525Z,1.00
2022-12-28T06:03:30.855Z,1.55
2022-12-28T06:04:34.013Z,1.20
2022-12-28T06:05:36.087Z,0.98
2022-12-28T06:06:40.721Z,1.10
2022-12-28T06:07:42.828Z,1.08
2022-12-28T06:08:47.367Z,1.10
2022-12-28T06:09:49.612Z,1.30
2022-12-28T06:10:52.746Z,1.02
2022-12-28T06:11:55.874Z,1.13
2022-12-28T06:12:57.971Z,1.08
2022-12-28T06:14:03.755Z,1.35
2022-12-28T06:15:06.951Z,1.10
2022-12-28T06:16:13.125Z,1.42
2022-12-28T06:17:15.317Z,1.30
2022-12-28T06:18:18.593Z,2.15
2022-12-28T06:19:21.736Z,1.17
2022-12-28T06:20:23.786Z,1.40
2022-12-28T06:21:29.023Z,1.77
2022-12-28T06:22:32.713Z,1.10
2022-12-28T06:23:39.247Z,1.33
2022-12-28T06:24:42.351Z,1.40
2022-12-28T06:25:44.794Z,1.23
2022-12-28T06:26:48.508Z,1.05
2022-12-28T06:27:50.730Z,1.20
2022-12-28T06:28:53.812Z,1.02
2022-12-28T06:29:55.982Z,1.40
2022-12-28T06:31:04.702Z,1.10
2022-12-28T06:32:07.115Z,1.40
2022-12-28T06:33:10.399Z,1.38
2022-12-28T06:34:12.617Z,0.95
2022-12-28T06:35:16.016Z,1.58
2022-12-28T06:36:20.963Z,1.63
2022-12-28T06:37:24.292Z,1.50
2022-12-28T06:38:31.232Z,1.42
2022-12-28T06:39:34.507Z,1.30
2022-12-28T06:41:10.923Z,1.58
2022-12-28T06:41:59.860Z,1.10
2022-12-28T06:43:01.979Z,1.10
2022-12-28T06:44:07.671Z,1.10
2022-12-28T06:45:10.220Z,1.40
2022-12-28T06:46:17.333Z,1.30
2022-12-28T06:47:19.568Z,1.08
2022-12-28T06:48:23.020Z,1.30
2022-12-28T06:49:26.489Z,1.20
2022-12-28T06:50:28.610Z,1.45
2022-12-28T06:51:36.301Z,1.10
2022-12-28T06:52:39.739Z,1.23
2022-12-28T06:53:43.896Z,1.10
2022-12-28T06:54:47.182Z,1.10
2022-12-28T06:55:53.467Z,1.10
2022-12-28T06:56:56.785Z,1.17
2022-12-28T06:57:58.908Z,0.90
2022-12-28T06:59:04.295Z,1.20
2022-12-28T07:00:07.968Z,1.40
2022-12-28T07:01:14.289Z,1.20
2022-12-28T07:02:18.077Z,1.00
2022-12-28T07:03:20.493Z,0.90
2022-12-28T07:04:23.629Z,1.08
2022-12-28T07:05:25.772Z,0.85
2022-12-28T07:06:30.682Z,1.23
2022-12-28T07:07:32.894Z,1.08
2022-12-28T07:08:36.830Z,1.05
2022-12-28T07:09:40.618Z,1.30
2022-12-28T07:10:44.257Z,0.98
2022-12-28T07:11:50.427Z,1.20
2022-12-28T07:12:52.700Z,1.40
2022-12-28T07:13:56.394Z,1.58
2022-12-28T07:14:58.600Z,1.40
2022-12-28T07:16:04.491Z,0.98
2022-12-28T07:17:06.687Z,1.00
2022-12-28T07:18:09.998Z,1.20
2022-12-28T07:19:12.179Z,1.17
2022-12-28T07:20:15.425Z,1.10
2022-12-28T07:21:21.351Z,1.00
2022-12-28T07:22:24.967Z,1.15
2022-12-28T07:23:30.162Z,1.17
2022-12-28T07:24:33.381Z,1.17
2022-12-28T07:25:37.326Z,0.98
2022-12-28T07:26:40.547Z,1.13
2022-12-28T07:27:42.681Z,0.95
2022-12-28T07:28:47.933Z,1.10
2022-12-28T07:29:51.370Z,1.45
2022-12-28T07:30:53.617Z,0.90
2022-12-28T07:31:56.755Z,1.30
2022-12-28T07:32:58.911Z,1.20
2022-12-28T07:34:02.598Z,1.10
2022-12-28T07:35:05.898Z,1.55
2022-12-28T07:36:11.855Z,1.20
2022-12-28T07:37:15.444Z,1.30
2022-12-28T07:38:21.302Z,1.20
2022-12-28T07:39:25.078Z,1.00
2022-12-28T07:40:27.698Z,1.00
2022-12-28T07:41:34.684Z,1.30
2022-12-28T07:42:39.150Z,1.10
2022-12-28T07:43:42.930Z,1.30
2022-12-28T07:44:49.072Z,1.70
2022-12-28T07:46:01.280Z,1.50
2022-12-28T07:47:04.696Z,1.42
2022-12-28T07:48:06.885Z,1.35
2022-12-28T07:49:10.075Z,1.45
2022-12-28T07:50:12.295Z,1.55
2022-12-28T07:51:17.214Z,1.20
2022-12-28T07:52:20.363Z,1.40
2022-12-28T07:53:22.566Z,1.40
2022-12-28T07:54:26.629Z,1.30
2022-12-28T07:55:31.308Z,1.60
2022-12-28T07:57:37.404Z,1.38
2022-12-28T07:59:42.884Z,1.40
2022-12-28T08:00:45.332Z,1.20
2022-12-28T08:01:51.379Z,1.20
2022-12-28T08:02:56.432Z,1.38
2022-12-28T08:04:01.199Z,1.30
2022-12-28T08:05:03.493Z,1.20
2022-12-28T08:06:08.856Z,1.40
2022-12-28T08:07:11.641Z,1.10
2022-12-28T08:08:14.809Z,1.40
2022-12-28T08:09:18.088Z,1.45
2022-12-28T08:10:20.201Z,1.20
2022-12-28T08:11:25.578Z,1.63
2022-12-28T08:12:29.083Z,1.35
2022-12-28T08:13:34.056Z,1.10
2022-12-28T08:14:36.124Z,1.55
2022-12-28T08:15:39.557Z,1.40
2022-12-28T08:16:43.493Z,1.17
2022-12-28T08:17:46.852Z,1.30
2022-12-28T08:18:50.062Z,1.40
2022-12-28T08:19:55.468Z,1.60
2022-12-28T08:21:01.951Z,1.20
2022-12-28T08:22:05.131Z,1.10
2022-12-28T08:23:07.270Z,1.60
2022-12-28T08:24:14.240Z,1.23
2022-12-28T08:25:16.494Z,1.30
2022-12-28T08:26:22.667Z,1.20
2022-12-28T08:27:24.959Z,1.60
2022-12-28T08:28:29.535Z,1.35
2022-12-28T08:29:32.897Z,1.17
2022-12-28T08:30:35.482Z,1.10
2022-12-28T08:31:40.931Z,1.20
2022-12-28T08:32:43.309Z,1.42
2022-12-28T08:33:47.071Z,1.20
2022-12-28T08:34:50.466Z,1.48
2022-12-28T08:35:52.630Z,1.50
2022-12-28T08:36:56.645Z,1.50
2022-12-28T08:37:59.294Z,1.13
2022-12-28T08:39:03.677Z,1.35
2022-12-28T08:40:08.143Z,1.30
2022-12-28T08:41:13.853Z,1.40
2022-12-28T08:42:17.172Z,1.45
2022-12-28T08:43:19.367Z,1.20
2022-12-28T08:44:24.431Z,1.40
2022-12-28T08:45:27.386Z,1.63
2022-12-28T08:46:33.128Z,1.48
2022-12-28T08:47:35.367Z,1.35
2022-12-28T08:48:38.716Z,1.58
2022-12-28T08:49:42.401Z,1.70
2022-12-28T08:50:44.870Z,1.50
2022-12-28T08:51:48.067Z,1.60
2022-12-28T08:52:50.516Z,1.50
2022-12-28T08:53:54.562Z,1.67
2022-12-28T08:54:56.805Z,1.63
2022-12-28T08:56:06.734Z,1.50
2022-12-28T08:57:10.743Z,1.70
2022-12-28T08:58:14.049Z,1.92
2022-12-28T08:59:19.259Z,1.80
2022-12-28T09:00:24.076Z,2.05
2022-12-28T09:01:28.225Z,1.70
2022-12-28T09:02:31.859Z,1.80
2022-12-28T09:03:37.218Z,1.55
2022-12-28T09:04:41.041Z,1.40
2022-12-28T09:05:43.275Z,1.70
2022-12-28T09:06:46.976Z,1.10
2022-12-28T09:07:56.165Z,1.20
2022-12-28T09:09:06.161Z,1.50
2022-12-28T09:10:10.882Z,1.30
2022-12-28T09:11:14.391Z,1.27
2022-12-28T09:12:17.884Z,1.70
2022-12-28T09:13:20.137Z,2.17
2022-12-28T09:14:24.629Z,1.95
2022-12-28T09:15:28.499Z,2.42
2022-12-28T09:16:31.823Z,2.58
2022-12-28T09:17:34.115Z,2.75
2022-12-28T09:18:38.264Z,2.72
2022-12-28T09:19:40.407Z,2.70
2022-12-28T09:20:47.823Z,2.60
2022-12-28T09:21:53.346Z,2.20
2022-12-28T09:22:55.685Z,1.88
2022-12-28T09:23:59.741Z,2.40
2022-12-28T09:25:02.064Z,1.73
2022-12-28T09:26:07.214Z,1.50
2022-12-28T09:27:10.515Z,1.60
2022-12-28T09:28:12.831Z,1.27
2022-12-28T09:29:17.096Z,1.90
2022-12-28T09:30:19.889Z,1.63
2022-12-28T09:31:26.205Z,1.60
2022-12-28T09:32:29.497Z,1.50
2022-12-28T09:34:23.262Z,1.40
2022-12-28T09:35:13.687Z,1.60
2022-12-28T09:36:16.698Z,1.60
2022-12-28T09:37:20.480Z,1.90
2022-12-28T09:38:22.791Z,1.80
2022-12-28T09:39:26.093Z,2.22
2022-12-28T09:40:28.428Z,1.90
2022-12-28T09:41:33.619Z,2.47
2022-12-28T09:42:42.595Z,2.30
2022-12-28T09:43:45.057Z,1.75
2022-12-28T09:44:56.285Z,1.60
2022-12-28T09:45:58.746Z,1.77
2022-12-28T09:47:12.457Z,1.65
2022-12-28T09:48:20.642Z,1.30
2022-12-28T09:49:33.540Z,1.52
2022-12-28T09:50:37.828Z,1.80
2022-12-28T09:51:49.288Z,1.45
2022-12-28T09:53:06.522Z,1.85
2022-12-28T09:54:08.715Z,1.38
2022-12-28T09:55:14.120Z,1.60
2022-12-28T09:56:25.561Z,1.40
2022-12-28T09:57:35.808Z,1.52
2022-12-28T09:58:46.428Z,1.85
2022-12-28T09:59:53.484Z,1.60
2022-12-28T10:00:58.255Z,1.52
2022-12-28T10:02:05.997Z,1.52
2022-12-28T10:03:16.943Z,1.55
2022-12-28T10:04:20.583Z,1.65
2022-12-28T10:05:23.219Z,1.42
2022-12-28T10:06:28.697Z,1.42
2022-12-28T10:07:32.754Z,1.50
2022-12-28T10:08:40.160Z,1.80
2022-12-28T10:09:43.636Z,1.40
2022-12-28T10:10:48.929Z,1.67
2022-12-28T10:11:52.532Z,1.83
2022-12-28T10:12:55.120Z,2.10
2022-12-28T10:14:00.157Z,2.25
2022-12-28T10:15:02.564Z,2.60
2022-12-28T10:16:07.467Z,2.80
2022-12-28T10:17:14.522Z,2.20
2022-12-28T10:18:22.098Z,3.00
2022-12-28T10:19:27.317Z,2.00
2022-12-28T10:20:30.112Z,2.30
2022-12-28T10:21:35.000Z,1.90
2022-12-28T10:22:47.991Z,1.98
2022-12-28T10:24:29.842Z,1.70
2022-12-28T10:25:19.784Z,1.60
2022-12-28T10:26:23.047Z,1.25
2022-12-28T10:27:30.317Z,1.23
2022-12-28T10:28:49.426Z,1.50
2022-12-28T10:29:52.711Z,1.20
2022-12-28T10:31:06.297Z,1.40
2022-12-28T10:32:12.573Z,1.60
2022-12-28T10:33:21.284Z,1.70
2022-12-28T10:34:24.480Z,1.40
2022-12-28T10:35:30.718Z,1.33
2022-12-28T10:36:34.693Z,1.38
2022-12-28T10:37:45.153Z,1.23
2022-12-28T10:38:51.755Z,1.80
2022-12-28T10:39:56.753Z,1.10
2022-12-28T10:41:01.930Z,1.70
2022-12-28T10:42:05.621Z,1.08
2022-12-28T10:43:20.356Z,1.10
2022-12-28T10:44:42.079Z,1.10
2022-12-28T10:45:49.945Z,1.30
2022-12-28T10:46:59.170Z,1.23
2022-12-28T10:48:07.872Z,1.50
2022-12-28T10:49:16.815Z,1.45
2022-12-28T10:50:41.540Z,1.00
2022-12-28T10:52:03.746Z,1.42
2022-12-28T10:53:16.782Z,1.10
2022-12-28T10:54:27.568Z,1.17
2022-12-28T10:55:33.182Z,1.20
2022-12-28T10:56:50.250Z,1.20
2022-12-28T10:58:27.349Z,1.10
2022-12-28T10:59:24.857Z,0.80
2022-12-28T11:00:28.526Z,0.80
2022-12-28T11:01:32.262Z,1.60
2022-12-28T11:02:37.942Z,1.00
2022-12-28T11:03:46.461Z,1.02
2022-12-28T11:04:58.286Z,0.90
2022-12-28T11:06:11.575Z,1.08
2022-12-28T11:07:28.815Z,1.70
2022-12-28T11:08:32.266Z,0.93
2022-12-28T11:09:37.680Z,1.10
2022-12-28T11:10:40.576Z,1.02
2022-12-28T11:11:45.964Z,1.10
2022-12-28T11:12:48.214Z,1.10
2022-12-28T11:13:56.479Z,0.90
2022-12-28T11:15:00.054Z,1.10
2022-12-28T11:16:02.806Z,0.85
2022-12-28T11:17:19.229Z,0.77
2022-12-28T11:18:22.399Z,1.13
2022-12-28T11:19:27.971Z,1.08
2022-12-28T11:20:33.956Z,0.95
2022-12-28T11:21:38.027Z,1.10
2022-12-28T11:22:40.337Z,0.90
2022-12-28T11:23:45.689Z,0.90
2022-12-28T11:24:49.734Z,1.05
2022-12-28T11:25:52.498Z,0.80
2022-12-28T11:26:56.102Z,1.00
2022-12-28T11:27:59.639Z,1.00
2022-12-28T11:29:03.946Z,1.10
2022-12-28T11:30:17.517Z,1.00
2022-12-28T11:31:27.851Z,1.00
2022-12-28T11:32:36.191Z,0.70
2022-12-28T11:33:43.098Z,0.80
2022-12-28T11:34:48.319Z,0.80
2022-12-28T11:35:59.580Z,0.95
2022-12-28T11:37:03.367Z,0.80
2022-12-28T11:38:08.299Z,0.80
2022-12-28T11:39:47.848Z,0.60
2022-12-28T11:40:52.562Z,0.70
2022-12-28T11:42:28.137Z,0.60
2022-12-28T11:43:50.027Z,1.45
2022-12-28T11:44:55.136Z,0.88
2022-12-28T11:45:58.658Z,0.90
2022-12-28T11:47:05.765Z,0.80
2022-12-28T11:48:38.562Z,0.90
2022-12-28T11:49:41.743Z,0.98
2022-12-28T11:50:54.493Z,0.98
2022-12-28T11:52:35.390Z,0.90
2022-12-28T11:53:54.391Z,1.00
2022-12-28T11:54:59.993Z,0.85
2022-12-28T11:56:08.866Z,0.88
2022-12-28T11:57:11.255Z,0.95
2022-12-28T11:58:44.316Z,0.68
2022-12-28T11:59:47.537Z,0.70
2022-12-28T12:00:50.171Z,0.80
2022-12-28T12:01:58.120Z,0.80
2022-12-28T12:03:01.837Z,1.10
2022-12-28T12:04:29.123Z,0.88
2022-12-28T12:05:54.327Z,1.00
2022-12-28T12:07:57.779Z,0.70
2022-12-28T12:09:00.086Z,0.80
2022-12-28T12:10:35.034Z,0.90
2022-12-28T12:11:40.719Z,0.85
2022-12-28T12:12:53.038Z,0.80
2022-12-28T12:14:00.076Z,0.90
2022-12-28T12:15:10.116Z,0.75
2022-12-28T12:16:25.572Z,0.85
2022-12-28T12:17:42.691Z,1.00
2022-12-28T12:18:49.583Z,1.27
2022-12-28T12:19:56.953Z,1.05
2022-12-28T12:21:10.121Z,0.93
2022-12-28T12:22:20.360Z,0.82
2022-12-28T12:23:30.925Z,0.90
2022-12-28T12:24:42.546Z,0.75
2022-12-28T12:25:48.736Z,1.00
2022-12-28T12:26:58.657Z,0.82
2022-12-28T12:28:08.565Z,0.90
2022-12-28T12:29:18.385Z,0.82
2022-12-28T12:30:22.064Z,0.80
2022-12-28T12:31:31.113Z,1.00
2022-12-28T12:32:42.975Z,0.80
2022-12-28T12:33:50.099Z,0.90
2022-12-28T12:34:57.337Z,0.70
2022-12-28T12:36:10.844Z,0.80
2022-12-28T12:37:37.368Z,1.20
2022-12-28T12:39:04.555Z,0.80
2022-12-28T12:40:51.731Z,0.60
2022-12-28T12:42:05.662Z,0.90
2022-12-28T12:43:25.513Z,0.90
2022-12-28T12:44:35.021Z,0.90
2022-12-28T12:45:49.249Z,0.60
2022-12-28T12:47:21.996Z,0.70
2022-12-28T12:48:52.781Z,1.20
2022-12-28T12:50:17.850Z,0.70
2022-12-28T12:51:34.520Z,0.82
2022-12-28T12:52:42.831Z,0.75
2022-12-28T12:53:58.240Z,0.70
2022-12-28T12:55:19.743Z,1.10
2022-12-28T12:56:33.471Z,0.80
2022-12-28T12:57:45.515Z,0.70
2022-12-28T12:59:01.029Z,0.80
2022-12-28T13:00:10.978Z,0.80
2022-12-28T13:01:25.116Z,0.85
2022-12-28T13:02:44.937Z,0.85
2022-12-28T13:03:50.179Z,0.90
2022-12-28T13:04:52.582Z,0.90
2022-12-28T13:07:25.515Z,0.80
2022-12-28T13:08:52.579Z,0.77
2022-12-28T13:10:00.858Z,0.90
2022-12-28T13:11:16.225Z,0.90
2022-12-28T13:12:22.097Z,0.80
2022-12-28T13:13:32.136Z,1.00
2022-12-28T13:14:36.008Z,0.80
2022-12-28T13:15:38.393Z,0.73
2022-12-28T13:16:41.866Z,0.80
2022-12-28T13:18:11.304Z,0.80
2022-12-28T13:19:24.397Z,0.90
2022-12-28T13:20:26.895Z,1.05
2022-12-28T13:21:41.213Z,0.98
2022-12-28T13:22:47.600Z,0.68
2022-12-28T13:23:55.480Z,1.30
2022-12-28T13:24:59.456Z,1.02
2022-12-28T13:26:03.074Z,0.68
2022-12-28T13:27:19.102Z,0.80
2022-12-28T13:28:24.042Z,0.80
2022-12-28T13:29:29.055Z,0.80
2022-12-28T13:30:32.887Z,0.93
2022-12-28T13:31:39.305Z,0.90
2022-12-28T13:32:51.675Z,0.93
2022-12-28T13:33:56.723Z,0.93
2022-12-28T13:34:59.976Z,0.95
2022-12-28T13:36:11.925Z,0.95
2022-12-28T13:37:17.523Z,0.80
2022-12-28T13:38:22.772Z,0.85
2022-12-28T13:39:30.451Z,0.90
2022-12-28T13:40:34.675Z,1.00
2022-12-28T13:41:38.814Z,0.80
2022-12-28T13:42:52.385Z,0.70
2022-12-28T13:44:19.324Z,0.98
2022-12-28T13:45:23.475Z,0.95
2022-12-28T13:46:26.265Z,1.08
2022-12-28T13:47:33.207Z,0.90
2022-12-28T13:48:38.447Z,0.88
2022-12-28T13:49:45.997Z,0.90
2022-12-28T13:50:49.969Z,0.90
2022-12-28T13:51:53.966Z,0.80
2022-12-28T13:53:01.958Z,0.80
2022-12-28T13:54:07.294Z,0.70
2022-12-28T13:55:14.370Z,0.80
2022-12-28T13:56:18.444Z,0.90
2022-12-28T13:58:51.669Z,1.00
2022-12-28T13:59:56.583Z,0.75
2022-12-28T14:01:01.002Z,0.80
2022-12-28T14:02:06.111Z,0.70
2022-12-28T14:03:11.757Z,0.85
2022-12-28T14:05:45.346Z,0.80
2022-12-28T14:06:47.852Z,0.88
2022-12-28T14:07:53.005Z,1.00
2022-12-28T14:08:55.391Z,0.73
2022-12-28T14:10:00.407Z,0.80
2022-12-28T14:11:05.366Z,0.98
2022-12-28T14:12:09.786Z,1.00
2022-12-28T14:13:13.612Z,0.90
2022-12-28T14:14:17.254Z,0.95
2022-12-28T14:15:21.308Z,0.90
2022-12-28T14:16:24.747Z,1.00
2022-12-28T14:17:28.821Z,1.17
2022-12-28T14:18:33.631Z,1.10
2022-12-28T14:19:37.949Z,0.90
2022-12-28T14:20:48.572Z,1.10
2022-12-28T14:21:51.815Z,1.30
2022-12-28T14:22:55.377Z,1.05
2022-12-28T14:24:05.594Z,0.90
2022-12-28T14:25:12.159Z,0.95
2022-12-28T14:26:23.380Z,1.20
2022-12-28T14:27:25.693Z,1.10
2022-12-28T14:28:35.519Z,1.25
2022-12-28T14:29:38.846Z,0.90
2022-12-28T14:30:42.583Z,0.93
2022-12-28T14:31:46.364Z,1.20
2022-12-28T14:32:48.834Z,1.10
2022-12-28T14:33:54.548Z,1.08
2022-12-28T14:34:58.204Z,1.20
2022-12-28T14:36:03.724Z,1.00
2022-12-28T14:37:09.857Z,1.05
2022-12-28T14:38:20.487Z,1.10
2022-12-28T14:39:30.133Z,1.00
2022-12-28T14:40:36.969Z,1.30
2022-12-28T14:41:41.156Z,1.25
2022-12-28T14:42:51.461Z,0.80
2022-12-28T14:43:57.348Z,0.90
2022-12-28T14:45:20.629Z,1.20
2022-12-28T14:46:32.431Z,1.00
2022-12-28T14:47:37.916Z,0.85
2022-12-28T14:48:42.925Z,0.85
2022-12-28T14:49:46.449Z,1.27
2022-12-28T14:50:57.325Z,0.90
2022-12-28T14:52:42.135Z,0.80
2022-12-28T14:53:46.171Z,1.00
2022-12-28T14:54:50.074Z,0.98
2022-12-28T14:56:02.588Z,1.20
2022-12-28T14:57:18.175Z,1.00
2022-12-28T14:58:23.761Z,1.00
2022-12-28T14:59:31.448Z,1.13
2022-12-28T15:00:35.636Z,1.20
2022-12-28T15:01:43.738Z,1.10
2022-12-28T15:02:46.125Z,1.02